createdAt,value
2022-09-12T00:01:13.791Z,18.90
2022-09-12T00:03:44.001Z,20.02
2022-09-12T00:06:20.420Z,18.60
2022-09-12T00:08:52.119Z,19.63
2022-09-12T00:11:21.729Z,17.88
2022-09-12T00:13:54.587Z,20.13
2022-09-12T00:16:26.557Z,20.57
2022-09-12T00:18:56.429Z,19.83
2022-09-12T00:21:26.403Z,19.52
2022-09-12T00:23:56.718Z,19.10
2022-09-12T00:26:26.341Z,19.95
2022-09-12T00:28:58.940Z,16.27
2022-09-12T00:31:30.183Z,18.42
2022-09-12T00:34:02.685Z,17.13
2022-09-12T00:36:33.360Z,21.88
2022-09-12T00:39:03.660Z,20.77
2022-09-12T00:41:35.920Z,22.30
2022-09-12T00:44:35.329Z,19.45
2022-09-12T00:47:13.462Z,20.67
2022-09-12T00:49:48.636Z,17.20
2022-09-12T00:52:21.813Z,18.83
2022-09-12T00:54:56.815Z,20.60
2022-09-12T00:57:32.386Z,19.65
2022-09-12T01:00:07.454Z,18.02
2022-09-12T01:02:39.800Z,22.70
2022-09-12T01:05:10.904Z,17.63
2022-09-12T01:07:41.251Z,19.92
2022-09-12T01:10:12.511Z,20.52
2022-09-12T01:12:45.045Z,18.77
2022-09-12T01:15:15.394Z,20.15
2022-09-12T01:17:57.622Z,21.20
2022-09-12T01:20:47.922Z,22.67
2022-09-12T01:23:47.626Z,18.05
2022-09-12T01:26:38.449Z,22.25
2022-09-12T01:29:25.401Z,18.75
2022-09-12T01:32:08.125Z,20.08
2022-09-12T01:34:47.531Z,19.33
2022-09-12T01:37:22.534Z,22.05
2022-09-12T01:40:01.473Z,18.23
2022-09-12T01:42:37.073Z,22.10
2022-09-12T01:45:14.882Z,21.90
2022-09-12T01:47:52.810Z,19.55
2022-09-12T01:50:25.744Z,19.50
2022-09-12T01:52:59.958Z,23.10
2022-09-12T01:55:34.142Z,21.45
2022-09-12T01:58:08.628Z,23.80
2022-09-12T02:00:45.358Z,23.00
2022-09-12T02:03:21.871Z,24.92
2022-09-12T02:05:57.587Z,27.38
2022-09-12T02:08:32.049Z,25.08
2022-09-12T02:11:07.386Z,24.45
2022-09-12T02:13:40.892Z,24.73
2022-09-12T02:16:13.451Z,25.27
2022-09-12T02:18:49.935Z,27.65
2022-09-12T02:21:22.280Z,25.85
2022-09-12T02:23:59.741Z,24.88
2022-09-12T02:26:34.096Z,24.92
2022-09-12T02:29:03.944Z,23.15
2022-09-12T02:31:39.640Z,25.58
2022-09-12T02:34:29.678Z,24.73
2022-09-12T02:37:08.606Z,23.75
2022-09-12T02:39:42.101Z,28.58
2022-09-12T02:42:14.842Z,26.98
2022-09-12T02:44:45.518Z,25.40
2022-09-12T02:47:21.990Z,26.60
2022-09-12T02:49:55.390Z,24.02
2022-09-12T02:52:25.481Z,27.08
2022-09-12T02:54:55.420Z,26.80
2022-09-12T02:57:25.238Z,26.55
2022-09-12T02:59:58.502Z,28.23
2022-09-12T03:02:34.767Z,29.02
2022-09-12T03:05:29.702Z,28.35
2022-09-12T03:08:37.350Z,27.05
2022-09-12T03:11:28.436Z,27.90
2022-09-12T03:14:09.383Z,25.50
2022-09-12T03:16:47.766Z,29.65
2022-09-12T03:19:25.571Z,30.52
2022-09-12T03:22:08.311Z,26.17
2022-09-12T03:24:41.422Z,26.38
2022-09-12T03:27:19.717Z,28.50
2022-09-12T03:29:51.510Z,26.67
2022-09-12T03:32:21.083Z,26.02
2022-09-12T03:34:50.694Z,24.63
2022-09-12T03:37:22.944Z,26.90
2022-09-12T03:39:52.496Z,27.50
2022-09-12T03:42:22.181Z,27.40
2022-09-12T03:44:51.812Z,25.55
2022-09-12T03:47:21.379Z,29.35
2022-09-12T03:49:52.575Z,26.38
2022-09-12T03:52:25.429Z,24.48
2022-09-12T03:54:55.777Z,28.17
2022-09-12T03:57:25.475Z,25.80
2022-09-12T03:59:55.253Z,24.23
2022-09-12T04:02:25.498Z,25.58
2022-09-12T04:04:55.374Z,27.35
2022-09-12T04:07:27.526Z,25.20
2022-09-12T04:09:57.097Z,27.73
2022-09-12T04:12:26.625Z,24.83
2022-09-12T04:14:56.728Z,29.65
2022-09-12T04:17:26.359Z,25.77
2022-09-12T04:19:56.659Z,26.58
2022-09-12T04:22:30.019Z,26.55
2022-09-12T04:25:00.284Z,27.38
2022-09-12T04:27:31.084Z,29.38
2022-09-12T04:30:02.275Z,24.45
2022-09-12T04:32:33.631Z,26.27
2022-09-12T04:35:03.290Z,27.48
2022-09-12T04:37:35.594Z,26.60
2022-09-12T04:40:06.102Z,24.13
2022-09-12T04:42:35.746Z,28.75
2022-09-12T04:45:06.389Z,25.83
2022-09-12T04:47:35.968Z,25.10
2022-09-12T04:50:05.802Z,25.13
2022-09-12T04:52:37.948Z,30.13
2022-09-12T04:55:08.694Z,26.85
2022-09-12T04:57:38.790Z,26.00
2022-09-12T05:00:13.763Z,25.27
2022-09-12T05:02:43.516Z,24.55
2022-09-12T05:05:13.689Z,23.70
2022-09-12T05:07:45.961Z,28.35
2022-09-12T05:10:15.833Z,26.20
2022-09-12T05:12:45.508Z,30.23
2022-09-12T05:15:15.194Z,32.67
2022-09-12T05:17:44.935Z,27.80
2022-09-12T05:20:15.386Z,31.15
2022-09-12T05:22:47.614Z,30.52
2022-09-12T05:25:17.345Z,27.63
2022-09-12T05:27:50.463Z,31.25
2022-09-12T05:30:20.587Z,32.42
2022-09-12T05:32:50.242Z,30.00
2022-09-12T05:35:20.147Z,30.17
2022-09-12T05:37:52.658Z,30.85
2022-09-12T05:40:22.414Z,31.45
2022-09-12T05:42:52.125Z,33.03
2022-09-12T05:45:21.758Z,31.67
2022-09-12T05:47:51.609Z,33.40
2022-09-12T05:50:21.383Z,35.03
2022-09-12T05:52:55.532Z,33.67
2022-09-12T05:55:26.853Z,35.80
2022-09-12T05:57:56.686Z,34.28
2022-09-12T06:00:29.302Z,36.97
2022-09-12T06:03:01.579Z,35.22
2022-09-12T06:05:33.277Z,38.40
2022-09-12T06:08:05.872Z,36.45
2022-09-12T06:10:35.440Z,35.35
2022-09-12T06:13:05.138Z,36.80
2022-09-12T06:15:35.625Z,38.80
2022-09-12T06:18:05.491Z,49.80
2022-09-12T06:20:35.758Z,44.67
2022-09-12T06:23:08.012Z,42.35
2022-09-12T06:25:37.542Z,35.92
2022-09-12T06:28:08.532Z,40.17
2022-09-12T06:30:38.149Z,42.42
2022-09-12T06:33:07.779Z,41.58
2022-09-12T06:35:39.208Z,39.55
2022-09-12T06:38:11.781Z,39.42
2022-09-12T06:40:45.208Z,39.55
2022-09-12T06:43:16.527Z,41.53
2022-09-12T06:45:52.329Z,42.03
2022-09-12T06:48:22.043Z,43.33
2022-09-12T06:51:00.270Z,40.22
2022-09-12T06:53:33.728Z,40.47
2022-09-12T06:56:05.107Z,38.60
2022-09-12T06:58:35.039Z,45.47
2022-09-12T07:01:06.064Z,47.85
2022-09-12T07:03:36.292Z,40.38
2022-09-12T07:06:07.311Z,39.50
2022-09-12T07:08:41.130Z,39.20
2022-09-12T07:11:15.725Z,42.63
2022-09-12T07:13:47.219Z,43.33
2022-09-12T07:16:19.964Z,39.83
2022-09-12T07:18:54.074Z,41.13
2022-09-12T07:21:24.207Z,33.25
2022-09-12T07:23:58.043Z,41.28
2022-09-12T07:26:29.918Z,34.83
2022-09-12T07:29:25.224Z,41.35
2022-09-12T07:31:51.307Z,36.53
2022-09-12T07:34:20.969Z,34.30
2022-09-12T07:36:50.476Z,35.08
2022-09-12T07:39:23.106Z,33.75
2022-09-12T07:41:52.653Z,36.43
2022-09-12T07:44:23.042Z,33.60
2022-09-12T07:46:53.274Z,31.73
2022-09-12T07:49:22.931Z,34.25
2022-09-12T07:51:53.292Z,33.25
2022-09-12T07:54:26.806Z,34.00
2022-09-12T07:59:50.787Z,33.28
2022-09-12T08:02:17.774Z,28.92
2022-09-12T08:04:48.395Z,31.45
2022-09-12T08:07:19.279Z,34.65
2022-09-12T08:09:53.592Z,33.63
2022-09-12T08:12:23.186Z,32.53
2022-09-12T08:14:52.827Z,30.63
2022-09-12T08:17:22.562Z,30.73
2022-09-12T08:19:52.725Z,31.30
2022-09-12T08:22:23.033Z,24.25
2022-09-12T08:24:55.600Z,32.35
2022-09-12T08:27:25.474Z,18.93
2022-09-12T08:29:55.683Z,18.25
2022-09-12T08:32:25.649Z,20.83
2022-09-12T08:34:55.582Z,23.33
2022-09-12T08:37:25.789Z,21.45
2022-09-12T08:39:58.244Z,18.52
2022-09-12T08:42:49.378Z,17.53
2022-09-12T08:45:25.476Z,19.13
2022-09-12T08:47:55.919Z,17.48
2022-09-12T08:50:26.029Z,17.10
2022-09-12T08:52:59.799Z,16.15
2022-09-12T08:55:44.031Z,14.77
2022-09-12T08:58:17.457Z,13.30
2022-09-12T09:03:51.106Z,15.32
2022-09-12T09:06:35.222Z,14.15
2022-09-12T09:09:13.015Z,13.40
2022-09-12T09:11:59.142Z,16.13
2022-09-12T09:14:53.569Z,13.80
2022-09-12T09:17:29.295Z,13.90
2022-09-12T09:20:06.098Z,12.15
2022-09-12T09:22:39.394Z,13.68
2022-09-12T09:27:48.739Z,12.88
2022-09-12T09:30:23.620Z,12.88
2022-09-12T09:32:55.700Z,11.13
2022-09-12T09:35:36.621Z,10.50
2022-09-12T09:38:20.345Z,8.95
2022-09-12T09:40:58.935Z,12.15
2022-09-12T09:43:31.398Z,11.50
2022-09-12T09:46:01.827Z,12.50
2022-09-12T09:48:34.564Z,11.10
2022-09-12T09:51:07.224Z,9.15
2022-09-12T09:53:41.549Z,9.70
2022-09-12T09:56:21.496Z,8.75
2022-09-12T09:58:55.673Z,10.90
2022-09-12T10:01:25.366Z,9.20
2022-09-12T10:03:56.568Z,11.73
2022-09-12T10:06:30.955Z,10.48
2022-09-12T10:09:25.649Z,8.43
2022-09-12T10:11:56.995Z,6.70
2022-09-12T10:14:44.102Z,8.90
2022-09-12T10:17:34.355Z,8.95
2022-09-12T10:20:20.555Z,8.40
2022-09-12T10:22:52.055Z,7.80
2022-09-12T10:25:23.097Z,9.15
2022-09-12T10:27:59.075Z,8.27
2022-09-12T10:30:31.655Z,8.75
2022-09-12T10:33:11.397Z,9.00
2022-09-12T10:35:51.352Z,8.27
2022-09-12T10:38:26.740Z,9.13
2022-09-12T10:41:04.337Z,7.65
2022-09-12T10:43:38.692Z,8.73
2022-09-12T10:46:34.637Z,10.45
2022-09-12T10:49:38.221Z,9.80
2022-09-12T10:52:23.917Z,10.60
2022-09-12T10:54:53.881Z,8.55
2022-09-12T10:57:53.451Z,7.75
2022-09-12T11:00:28.091Z,12.68
2022-09-12T11:03:13.466Z,11.40
2022-09-12T11:05:55.536Z,12.48
2022-09-12T11:08:53.518Z,8.95
2022-09-12T11:11:42.703Z,8.95
2022-09-12T11:14:42.685Z,9.77
2022-09-12T11:17:26.207Z,9.82
2022-09-12T11:22:55.871Z,9.00
2022-09-12T11:25:34.717Z,10.10
2022-09-12T11:28:26.570Z,10.13
2022-09-12T11:31:14.417Z,7.65
2022-09-12T11:33:46.816Z,7.68
2022-09-12T11:36:32.693Z,8.30
2022-09-12T11:39:10.475Z,6.72
2022-09-12T11:41:44.180Z,7.97
2022-09-12T11:44:22.029Z,8.23
2022-09-12T11:46:52.431Z,8.52
2022-09-12T11:49:32.437Z,8.18
2022-09-12T11:52:17.294Z,7.75
2022-09-12T11:54:53.891Z,6.72
2022-09-12T11:57:32.018Z,7.90
2022-09-12T12:00:08.131Z,7.18
2022-09-12T12:02:45.471Z,8.23
2022-09-12T12:05:24.965Z,6.70
2022-09-12T12:07:59.279Z,8.57
2022-09-12T12:10:37.522Z,7.63
2022-09-12T12:13:14.096Z,8.15
2022-09-12T12:15:50.135Z,8.60
2022-09-12T12:18:23.168Z,9.50
2022-09-12T12:20:53.917Z,8.07
2022-09-12T12:23:34.934Z,7.35
2022-09-12T12:26:06.426Z,10.13
2022-09-12T12:29:03.021Z,9.35
2022-09-12T12:31:32.711Z,9.70
2022-09-12T12:34:28.820Z,7.78
2022-09-12T12:36:59.216Z,8.50
2022-09-12T12:40:05.902Z,9.60
2022-09-12T12:43:07.637Z,10.10
2022-09-12T12:46:14.579Z,10.07
2022-09-12T12:48:58.321Z,7.55
2022-09-12T12:51:51.400Z,8.60
2022-09-12T12:54:33.298Z,9.90
2022-09-12T12:57:09.303Z,7.70
2022-09-12T12:59:50.150Z,8.60
2022-09-12T13:02:25.385Z,8.75
2022-09-12T13:04:56.630Z,9.50
2022-09-12T13:07:32.854Z,11.13
2022-09-12T13:10:04.010Z,9.32
2022-09-12T13:12:36.841Z,9.10
2022-09-12T13:15:50.649Z,12.27
2022-09-12T13:18:26.322Z,11.38
2022-09-12T13:21:01.862Z,9.25
2022-09-12T13:23:35.358Z,9.10
2022-09-12T13:26:05.655Z,8.45
2022-09-12T13:31:18.928Z,11.52
2022-09-12T13:33:51.407Z,9.27
2022-09-12T13:36:37.130Z,9.93
2022-09-12T13:39:17.758Z,7.07
2022-09-12T13:42:13.180Z,6.70
2022-09-12T13:44:47.525Z,10.13
2022-09-12T13:47:31.038Z,8.23
2022-09-12T13:50:01.534Z,9.00
2022-09-12T13:52:34.559Z,8.30
2022-09-12T13:55:09.092Z,7.53
2022-09-12T13:57:41.494Z,15.43
2022-09-12T14:00:20.115Z,7.38
2022-09-12T14:03:13.479Z,10.07
2022-09-12T14:05:44.719Z,10.52
2022-09-12T14:08:16.979Z,9.63
2022-09-12T14:10:50.554Z,7.50
2022-09-12T14:13:23.496Z,8.32
2022-09-12T14:15:55.312Z,7.15
2022-09-12T14:18:29.461Z,7.82
2022-09-12T14:21:01.389Z,9.00
2022-09-12T14:23:33.498Z,6.60
2022-09-12T14:26:08.373Z,6.45
2022-09-12T14:28:38.643Z,8.10
2022-09-12T14:31:10.627Z,7.35
2022-09-12T14:33:53.689Z,7.72
2022-09-12T14:36:27.403Z,7.75
2022-09-12T14:39:01.781Z,8.23
2022-09-12T14:41:34.167Z,6.32
2022-09-12T14:44:08.416Z,6.28
2022-09-12T14:46:39.789Z,8.15
2022-09-12T14:49:18.821Z,7.68
2022-09-12T14:51:57.578Z,5.85
2022-09-12T14:54:42.931Z,5.78
2022-09-12T14:57:35.251Z,6.55
2022-09-12T15:00:22.461Z,7.35
2022-09-12T15:02:52.807Z,7.60
2022-09-12T15:05:30.502Z,6.43
2022-09-12T15:08:02.351Z,8.63
2022-09-12T15:10:34.420Z,7.07
2022-09-12T15:13:20.113Z,8.52
2022-09-12T15:15:51.911Z,5.85
2022-09-12T15:18:22.655Z,7.55
2022-09-12T15:20:58.040Z,6.25
2022-09-12T15:23:35.877Z,7.10
2022-09-12T15:26:06.691Z,9.45
2022-09-12T15:28:36.915Z,8.10
2022-09-12T15:31:11.512Z,7.45
2022-09-12T15:33:41.137Z,8.20
2022-09-12T15:36:19.556Z,10.90
2022-09-12T15:38:50.917Z,11.15
2022-09-12T15:41:22.518Z,8.98
2022-09-12T15:43:52.793Z,8.10
2022-09-12T15:46:22.846Z,6.32
2022-09-12T15:48:52.916Z,7.03
2022-09-12T15:51:25.696Z,7.75
2022-09-12T15:53:55.503Z,6.57
2022-09-12T15:56:25.473Z,7.88
2022-09-12T15:58:59.608Z,11.07
2022-09-12T16:01:30.617Z,9.30
2022-09-12T16:04:00.805Z,8.70
2022-09-12T16:06:37.177Z,9.70
2022-09-12T16:09:07.672Z,9.18
2022-09-12T16:11:37.631Z,8.38
2022-09-12T16:14:08.244Z,7.78
2022-09-12T16:16:37.861Z,8.07
2022-09-12T16:19:07.702Z,8.43
2022-09-12T16:21:40.219Z,7.60
2022-09-12T16:24:10.290Z,9.10
2022-09-12T16:26:40.063Z,10.52
2022-09-12T16:29:10.383Z,8.52
2022-09-12T16:31:40.193Z,7.40
2022-09-12T16:34:12.679Z,8.57
2022-09-12T16:36:45.382Z,7.53
2022-09-12T16:39:15.124Z,7.22
2022-09-12T16:41:45.522Z,7.70
2022-09-12T16:44:15.369Z,12.38
2022-09-12T16:46:45.437Z,8.93
2022-09-12T16:49:15.665Z,8.48
2022-09-12T16:51:49.252Z,7.28
2022-09-12T16:54:20.034Z,7.68
2022-09-12T16:56:50.146Z,8.65
2022-09-12T16:59:19.815Z,8.50
2022-09-12T17:01:50.101Z,10.15
2022-09-12T17:04:23.477Z,8.93
2022-09-12T17:06:57.543Z,8.57
2022-09-12T17:09:28.322Z,6.95
2022-09-12T17:11:58.951Z,7.25
2022-09-12T17:14:28.496Z,6.63
2022-09-12T17:16:58.158Z,8.23
2022-09-12T17:19:32.888Z,9.73
2022-09-12T17:22:05.085Z,7.22
2022-09-12T17:24:34.721Z,8.50
2022-09-12T17:27:04.410Z,7.35
2022-09-12T17:29:35.141Z,7.85
2022-09-12T17:32:05.383Z,8.02
2022-09-12T17:34:35.023Z,7.00
2022-09-12T17:37:07.299Z,8.30
2022-09-12T17:39:36.911Z,7.70
2022-09-12T17:42:08.288Z,7.18
2022-09-12T17:44:38.819Z,6.65
2022-09-12T17:47:08.689Z,8.10
2022-09-12T17:49:39.473Z,7.25
2022-09-12T17:52:12.055Z,7.82
2022-09-12T17:54:41.776Z,7.10
2022-09-12T17:57:11.577Z,7.43
2022-09-12T17:59:41.330Z,7.65
2022-09-12T18:02:16.621Z,9.15
2022-09-12T18:04:48.922Z,7.78
2022-09-12T18:07:22.494Z,7.38
2022-09-12T18:09:55.363Z,7.43
2022-09-12T18:12:27.142Z,7.57
2022-09-12T18:14:56.751Z,9.02
2022-09-12T18:17:27.509Z,8.95
2022-09-12T18:19:57.126Z,8.98
2022-09-12T18:22:29.398Z,7.10
2022-09-12T18:24:59.076Z,9.60
2022-09-12T18:27:28.720Z,9.27
2022-09-12T18:30:19.697Z,8.73
2022-09-12T18:32:48.182Z,8.45
2022-09-12T18:35:18.211Z,9.07
2022-09-12T18:37:50.595Z,10.23
2022-09-12T18:40:20.381Z,7.97
2022-09-12T18:42:50.103Z,7.75
2022-09-12T18:45:20.126Z,8.52
2022-09-12T18:47:49.836Z,7.60
2022-09-12T18:50:20.018Z,9.60
2022-09-12T18:52:57.868Z,8.48
2022-09-12T18:55:29.619Z,10.40
2022-09-12T18:57:59.390Z,8.63
2022-09-12T19:00:29.084Z,10.82
2022-09-12T19:02:58.759Z,9.05
2022-09-12T19:05:28.471Z,10.55
2022-09-12T19:08:01.902Z,8.05
2022-09-12T19:13:01.504Z,7.82
2022-09-12T19:15:33.364Z,9.13
2022-09-12T19:18:03.073Z,9.38
2022-09-12T19:20:35.335Z,9.48
2022-09-12T19:23:07.710Z,8.35
2022-09-12T19:25:37.608Z,9.75
2022-09-12T19:28:08.099Z,8.15
2022-09-12T19:30:41.765Z,8.85
2022-09-12T19:33:14.337Z,8.35
2022-09-12T19:35:44.100Z,9.73
2022-09-12T19:38:16.944Z,10.80
2022-09-12T19:40:47.098Z,9.68
2022-09-12T19:43:24.543Z,9.48
2022-09-12T19:45:54.896Z,11.23
2022-09-12T19:48:24.889Z,8.60
2022-09-12T19:50:55.015Z,10.60
2022-09-12T19:53:27.380Z,12.57
2022-09-12T19:56:02.311Z,9.77
2022-09-12T19:58:32.767Z,9.95
2022-09-12T20:01:12.034Z,9.02
2022-09-12T20:03:42.278Z,11.82
2022-09-12T20:06:13.745Z,9.80
2022-09-12T20:08:47.268Z,8.90
2022-09-12T20:11:19.631Z,11.77
2022-09-12T20:13:50.574Z,7.88
2022-09-12T20:16:23.381Z,11.18
2022-09-12T20:18:56.761Z,16.38
2022-09-12T20:21:31.775Z,13.43
2022-09-12T20:24:09.331Z,12.45
2022-09-12T20:26:39.781Z,10.70
2022-09-12T20:29:09.731Z,10.32
2022-09-12T20:31:41.232Z,11.38
2022-09-12T20:34:16.545Z,11.13
2022-09-12T20:36:47.173Z,11.73
2022-09-12T20:39:21.821Z,11.20
2022-09-12T20:41:51.909Z,11.07
2022-09-12T20:44:21.812Z,8.65
2022-09-12T20:46:51.588Z,9.73
2022-09-12T20:49:21.539Z,10.45
2022-09-12T20:51:51.424Z,10.15
2022-09-12T20:54:23.590Z,9.90
2022-09-12T20:56:53.303Z,10.57
2022-09-12T20:59:23.089Z,9.98
2022-09-12T21:01:52.769Z,10.55
2022-09-12T21:04:23.849Z,11.18
2022-09-12T21:06:53.605Z,11.15
2022-09-12T21:09:25.775Z,9.20
2022-09-12T21:11:55.606Z,9.85
2022-09-12T21:14:25.266Z,19.13
2022-09-12T21:16:54.788Z,15.55
2022-09-12T21:19:24.518Z,13.23
2022-09-12T21:21:54.260Z,11.95
2022-09-12T21:24:26.422Z,10.50
2022-09-12T21:26:57.420Z,12.52
2022-09-12T21:29:28.918Z,11.45
2022-09-12T21:31:58.553Z,10.93
2022-09-12T21:34:28.319Z,9.80
2022-09-12T21:36:57.928Z,13.20
2022-09-12T21:39:30.330Z,9.82
2022-09-12T21:42:00.144Z,11.80
2022-09-12T21:44:29.760Z,11.15
2022-09-12T21:46:59.498Z,9.05
2022-09-12T21:49:29.253Z,11.25
2022-09-12T21:51:58.829Z,12.02
2022-09-12T21:54:31.048Z,12.02
2022-09-12T21:57:00.649Z,11.35
2022-09-12T21:59:30.438Z,11.40
2022-09-12T22:02:00.499Z,10.95
2022-09-12T22:04:33.012Z,14.02
2022-09-12T22:07:02.634Z,11.98
2022-09-12T22:09:35.159Z,11.32
2022-09-12T22:12:05.375Z,11.40
2022-09-12T22:14:35.012Z,11.52
2022-09-12T22:17:05.407Z,13.02
2022-09-12T22:19:35.223Z,11.35
2022-09-12T22:22:17.409Z,12.13
2022-09-12T22:24:50.614Z,11.70
2022-09-12T22:27:20.221Z,11.80
2022-09-12T22:29:52.496Z,10.93
2022-09-12T22:32:25.254Z,11.30
2022-09-12T22:34:54.873Z,9.90
2022-09-12T22:37:24.545Z,10.73
2022-09-12T22:39:56.969Z,11.63
2022-09-12T22:42:26.768Z,13.73
2022-09-12T22:44:56.490Z,14.38
2022-09-12T22:47:27.121Z,11.77
2022-09-12T22:49:59.136Z,11.02
2022-09-12T22:52:28.808Z,12.38
2022-09-12T22:55:01.084Z,12.70
2022-09-12T22:57:30.791Z,9.65
2022-09-12T23:00:00.447Z,10.43
2022-09-12T23:02:30.043Z,11.90
2022-09-12T23:04:59.553Z,11.68
2022-09-12T23:07:29.239Z,10.05
2022-09-12T23:10:01.442Z,11.40
2022-09-12T23:12:31.984Z,10.82
2022-09-12T23:15:01.532Z,9.57
2022-09-12T23:17:31.337Z,11.10
2022-09-12T23:20:00.969Z,9.98
2022-09-12T23:22:30.606Z,11.68
2022-09-12T23:25:03.410Z,10.80
2022-09-12T23:27:32.985Z,11.43
2022-09-12T23:30:02.778Z,12.13
2022-09-12T23:32:32.429Z,11.57
2022-09-12T23:35:03.147Z,10.23
2022-09-12T23:37:32.787Z,12.93
2022-09-12T23:40:05.705Z,11.68
2022-09-12T23:42:35.309Z,12.25
2022-09-12T23:45:04.967Z,10.40
2022-09-12T23:47:34.581Z,14.52
2022-09-12T23:50:04.249Z,11.52
2022-09-12T23:52:34.190Z,11.68
2022-09-12T23:55:07.386Z,11.52
2022-09-12T23:57:36.922Z,10.95
